Beatrice, NE

10:15 AM CDT on March 25, 2017 (GMT -0500)
Beatrice Municipal

Weather History for KBIE - January, 2013

Change the Weather History Date:

Friday, January 25, 2013

  Actual Average Record
Temperature  
Mean Temperature 32 °F -  
Max Temperature 50 °F 40 °F 67 °F (1981)
Min Temperature 15 °F 21 °F -5 °F (1961)
Degree Days  
Heating Degree Days 32    
Moisture  
Dew Point 14 °F    
Average Humidity 51    
Maximum Humidity 74    
Minimum Humidity 27    
Precipitation  
Precipitation 0.00 in - - ()
Sea Level Pressure  
Sea Level Pressure 30.17 in    
Wind  
Wind Speed 4 mph (WNW)    
Max Wind Speed 10 mph    
Max Gust Speed -    
Visibility 10 miles    
Events      
Averages and records for this station are not official NWS values.
T = Trace of Precipitation, MM = Missing Value Source: NWS Daily Summary

Daily Weather History Graph

Daily Weather History Graph

Search for Another Location

Airport or City:

Trip Planner

Search our weather history database for the weather conditions in past years. The results will help you decide how hot, cold, wet, or windy it might be!

Date:

Astronomy

Jan. 25, 2013 Rise Set
Actual Time 7:41 AM CST 5:37 PM CST
Civil Twilight 7:12 AM CST 6:06 PM CST
Nautical Twilight 6:39 AM CST 6:39 PM CST
Astronomical Twilight 6:07 AM CST 7:11 PM CST
Moon 4:35 PM CST 6:22 AM CST
Length of Visible Light 10h 54m
Length of Day
9h 55m
Waxing Gibbous, 98% of the Moon is Illuminated
Jan 25
Waxing Gibbous
Jan 26
Full
Feb 3
Last Quarter
Feb 10
New
Feb 17
First Quarter

Hourly Weather History & Observations

Time (CST) Temp. Windchill Dew Point Humidity Pressure Visibility Wind Dir Wind Speed Gust Speed Precip Events Conditions
12:15 AM 24.8 °F 19.1 °F 2.5 °F 38% 30.16 in 10.0 mi SSE 4.6 mph - N/A   Overcast
12:35 AM 24.8 °F - 3.0 °F 39% 30.17 in 10.0 mi Calm Calm - N/A   Overcast
12:55 AM 24.3 °F - 4.3 °F 42% 30.16 in 10.0 mi Calm Calm - N/A   Overcast
1:15 AM 23.5 °F 19.1 °F 3.9 °F 43% 30.15 in 10.0 mi SSE 3.5 mph - N/A   Scattered Clouds
1:35 AM 23.5 °F - 3.9 °F 43% 30.14 in 10.0 mi Calm Calm - N/A   Clear
1:55 AM 23.2 °F - 4.1 °F 44% 30.15 in 10.0 mi Calm Calm - N/A   Clear
2:15 AM 21.7 °F - 5.0 °F 49% 30.15 in 10.0 mi Calm Calm - N/A   Clear
2:35 AM 21.4 °F 16.6 °F 4.8 °F 49% 30.14 in 10.0 mi SSW 3.5 mph - N/A   Clear
2:55 AM 18.7 °F 13.5 °F 4.8 °F 55% 30.15 in 10.0 mi SW 3.5 mph - N/A   Clear
3:15 AM 19.4 °F - 5.0 °F 54% 30.14 in 10.0 mi Calm Calm - N/A   Clear
3:35 AM 19.0 °F - 5.0 °F 54% 30.14 in 10.0 mi Calm Calm - N/A   Clear
3:55 AM 17.8 °F 9.6 °F 5.4 °F 58% 30.13 in 10.0 mi SW 5.8 mph - N/A   Clear
4:15 AM 18.1 °F 8.9 °F 5.7 °F 58% 30.13 in 10.0 mi WSW 6.9 mph - N/A   Clear
4:35 AM 16.7 °F 9.6 °F 5.9 °F 63% 30.13 in 10.0 mi WSW 4.6 mph - N/A   Clear
4:55 AM 17.2 °F 8.9 °F 6.1 °F 62% 30.13 in 10.0 mi West 5.8 mph - N/A   Clear
5:15 AM 16.9 °F 8.5 °F 5.9 °F 62% 30.13 in 10.0 mi West 5.8 mph - N/A   Clear
5:35 AM 16.9 °F 8.5 °F 5.9 °F 62% 30.13 in 10.0 mi WSW 5.8 mph - N/A   Clear
5:55 AM 15.8 °F 7.2 °F 5.0 °F 62% 30.13 in 10.0 mi WSW 5.8 mph - N/A   Clear
6:15 AM 16.3 °F 9.2 °F 5.9 °F 64% 30.14 in 10.0 mi West 4.6 mph - N/A   Clear
6:35 AM 18.1 °F 8.9 °F 6.4 °F 60% 30.15 in 10.0 mi West 6.9 mph - N/A   Clear
6:55 AM 19.2 °F 9.3 °F 6.4 °F 58% 30.15 in 10.0 mi West 8.1 mph - N/A   Clear
7:15 AM 19.4 °F 11.5 °F 6.8 °F 58% 30.16 in 10.0 mi West 5.8 mph - N/A   Clear
7:35 AM 18.9 °F 7.2 °F 8.2 °F 63% 30.16 in 10.0 mi West 10.4 mph - N/A   Clear
7:55 AM 19.4 °F 7.9 °F 9.5 °F 65% 30.16 in 10.0 mi West 10.4 mph - N/A   Clear
8:15 AM 19.9 °F - 10.2 °F 66% 30.17 in 10.0 mi Calm Calm - N/A   Clear
8:35 AM 21.2 °F - 11.3 °F 66% 30.17 in 10.0 mi Calm Calm - N/A   Clear
8:55 AM 23.0 °F - 12.7 °F 65% 30.17 in 10.0 mi Calm Calm - N/A   Clear
9:15 AM 26.2 °F 20.7 °F 14.2 °F 60% 30.18 in 10.0 mi NW 4.6 mph - N/A   Clear
9:35 AM 28.2 °F 21.0 °F 14.7 °F 57% 30.17 in 10.0 mi NNW 6.9 mph - N/A   Clear
9:55 AM 30.0 °F 24.1 °F 15.4 °F 55% 30.18 in 10.0 mi NW 5.8 mph - N/A   Clear
10:15 AM 32.9 °F 27.5 °F 16.9 °F 52% 30.19 in 10.0 mi WNW 5.8 mph - N/A   Clear
10:35 AM 35.1 °F 29.3 °F 17.6 °F 49% 30.20 in 10.0 mi West 6.9 mph - N/A   Clear
10:55 AM 36.3 °F 30.8 °F 17.8 °F 47% 30.22 in 10.0 mi West 6.9 mph - N/A   Clear
11:15 AM 37.9 °F 32.7 °F 18.5 °F 46% 30.22 in 10.0 mi WNW 6.9 mph - N/A   Clear
11:35 AM 39.7 °F 34.3 °F 19.0 °F 43% 30.21 in 10.0 mi NNW 8.1 mph - N/A   Clear
11:55 AM 41.5 °F 37.1 °F 19.6 °F 41% 30.20 in 10.0 mi NNW 6.9 mph - N/A   Clear
12:15 PM 44.1 °F 39.0 °F 19.6 °F 38% 30.18 in 10.0 mi NNW 9.2 mph - N/A   Clear
12:35 PM 45.1 °F 42.0 °F 19.4 °F 36% 30.18 in 10.0 mi NNW 5.8 mph - N/A   Clear
12:55 PM 46.4 °F 42.9 °F 19.0 °F 34% 30.16 in 10.0 mi NW 6.9 mph - N/A   Clear
1:15 PM 47.5 °F - 19.0 °F 32% 30.16 in 10.0 mi North 3.5 mph - N/A   Clear
1:35 PM 48.7 °F - 17.8 °F 29% 30.15 in 10.0 mi NNW 3.5 mph - N/A   Clear
1:55 PM 49.5 °F - 18.0 °F 29% 30.16 in 10.0 mi West 5.8 mph - N/A   Clear
2:15 PM 50.0 °F - 17.4 °F 28% 30.16 in 10.0 mi West 4.6 mph - N/A   Clear
2:35 PM 50.5 °F - 18.0 °F 28% 30.16 in 10.0 mi West 6.9 mph - N/A   Clear
2:55 PM 50.5 °F - 17.4 °F 27% 30.15 in 10.0 mi WSW 8.1 mph - N/A   Clear
3:15 PM 50.5 °F - 17.4 °F 27% 30.16 in 10.0 mi West 6.9 mph - N/A   Clear
3:35 PM 50.7 °F - 17.6 °F 27% 30.15 in 10.0 mi WNW 5.8 mph - N/A   Clear
3:55 PM 50.9 °F - 17.6 °F 27% 30.15 in 10.0 mi WNW 4.6 mph - N/A   Clear
4:15 PM 49.6 °F - 18.5 °F 29% 30.15 in 10.0 mi NNW 4.6 mph - N/A   Clear
4:35 PM 48.4 °F - 19.6 °F 32% 30.16 in 10.0 mi WNW 3.5 mph - N/A   Clear
4:55 PM 48.0 °F - 19.9 °F 33% 30.16 in 10.0 mi Calm Calm - N/A   Clear
5:15 PM 46.0 °F - 19.8 °F 35% 30.16 in 10.0 mi Calm Calm - N/A   Clear
5:35 PM 41.2 °F - 19.6 °F 42% 30.16 in 10.0 mi Calm Calm - N/A   Clear
5:55 PM 40.3 °F - 19.9 °F 44% 30.17 in 10.0 mi Calm Calm - N/A   Clear
6:15 PM 37.9 °F - 19.9 °F 48% 30.17 in 10.0 mi Calm Calm - N/A   Clear
6:35 PM 38.1 °F - 20.7 °F 49% 30.17 in 10.0 mi Calm Calm - N/A   Clear
6:55 PM 37.0 °F 34.5 °F 20.8 °F 52% 30.18 in 10.0 mi NE 3.5 mph - N/A   Clear
7:15 PM 34.7 °F - 20.3 °F 56% 30.19 in 10.0 mi Calm Calm - N/A   Clear
7:35 PM 32.4 °F - 19.2 °F 58% 30.19 in 10.0 mi Calm Calm - N/A   Clear
7:55 PM 30.2 °F - 19.6 °F 65% 30.20 in 10.0 mi Calm Calm - N/A   Clear
8:15 PM 32.0 °F - 21.0 °F 64% 30.20 in 10.0 mi Calm Calm - N/A   Clear
8:35 PM 32.0 °F 28.7 °F 20.5 °F 63% 30.19 in 10.0 mi East 3.5 mph - N/A   Clear
8:55 PM 29.1 °F 25.4 °F 18.5 °F 65% 30.19 in 10.0 mi South 3.5 mph - N/A   Clear
9:15 PM 27.3 °F - 20.1 °F 74% 30.19 in 10.0 mi Calm Calm - N/A   Clear
9:35 PM 29.5 °F - 19.8 °F 67% 30.19 in 10.0 mi Calm Calm - N/A   Clear
9:55 PM 28.0 °F 24.2 °F 20.1 °F 72% 30.19 in 10.0 mi East 3.5 mph - N/A   Clear
10:15 PM 28.6 °F - 19.9 °F 70% 30.19 in 10.0 mi Calm Calm - N/A   Clear
10:35 PM 26.8 °F 20.2 °F 19.4 °F 74% 30.20 in 10.0 mi NE 5.8 mph - N/A   Clear
10:55 PM 28.6 °F 22.4 °F 20.3 °F 71% 30.20 in 10.0 mi ENE 5.8 mph - N/A   Clear
11:15 PM 29.5 °F 25.9 °F 20.1 °F 68% 30.20 in 10.0 mi East 3.5 mph - N/A   Clear
11:35 PM 27.9 °F 22.6 °F 20.3 °F 73% 30.21 in 10.0 mi East 4.6 mph - N/A   Clear
11:55 PM 29.8 °F 24.9 °F 21.0 °F 70% 30.21 in 10.0 mi East 4.6 mph - N/A   Clear